sensor_id;sensor_type;location;lat;lon;timestamp;pressure;altitude;pressure_sealevel;temperature;humidity
23241;BME280;11789;53.482;9.862;2023-08-31T00:00:22;100544.84;;;13.08;100.00
23241;BME280;11789;53.482;9.862;2023-08-31T00:02:47;100542.25;;;13.07;100.00
23241;BME280;11789;53.482;9.862;2023-08-31T00:05:13;100532.00;;;13.01;100.00
23241;BME280;11789;53.482;9.862;2023-08-31T00:07:38;100535.53;;;12.95;100.00
23241;BME280;11789;53.482;9.862;2023-08-31T00:10:04;100540.69;;;12.96;100.00
23241;BME280;11789;53.482;9.862;2023-08-31T00:12:35;100540.69;;;12.96;100.00
23241;BME280;11789;53.482;9.862;2023-08-31T00:15:01;100540.72;;;12.95;100.00
23241;BME280;11789;53.482;9.862;2023-08-31T00:17:27;100531.16;;;12.97;100.00
23241;BME280;11789;53.482;9.862;2023-08-31T00:19:52;100537.25;;;12.96;100.00
23241;BME280;11789;53.482;9.862;2023-08-31T00:22:19;100535.56;;;12.92;100.00
23241;BME280;11789;53.482;9.862;2023-08-31T00:24:45;100539.97;;;12.88;100.00
23241;BME280;11789;53.482;9.862;2023-08-31T00:27:10;100540.00;;;12.85;100.00
23241;BME280;11789;53.482;9.862;2023-08-31T00:29:37;100535.72;;;12.84;100.00
23241;BME280;11789;53.482;9.862;2023-08-31T00:32:04;100535.78;;;12.80;100.00
23241;BME280;11789;53.482;9.862;2023-08-31T00:34:31;100535.78;;;12.80;100.00
23241;BME280;11789;53.482;9.862;2023-08-31T00:36:56;100534.06;;;12.79;100.00
23241;BME280;11789;53.482;9.862;2023-08-31T00:39:22;100541.03;;;12.75;100.00
23241;BME280;11789;53.482;9.862;2023-08-31T00:41:47;100551.50;;;12.69;100.00
23241;BME280;11789;53.482;9.862;2023-08-31T00:44:13;100539.41;;;12.66;100.00
23241;BME280;11789;53.482;9.862;2023-08-31T00:46:40;100554.97;;;12.68;100.00
23241;BME280;11789;53.482;9.862;2023-08-31T00:49:05;100548.09;;;12.65;100.00
23241;BME280;11789;53.482;9.862;2023-08-31T00:51:31;100548.94;;;12.66;100.00
23241;BME280;11789;53.482;9.862;2023-08-31T00:53:57;100550.72;;;12.64;100.00
23241;BME280;11789;53.482;9.862;2023-08-31T00:56:24;100553.34;;;12.62;100.00
23241;BME280;11789;53.482;9.862;2023-08-31T00:58:50;100554.19;;;12.61;100.00
23241;BME280;11789;53.482;9.862;2023-08-31T01:01:24;100556.78;;;12.61;100.00
23241;BME280;11789;53.482;9.862;2023-08-31T01:06:55;100555.06;;;12.60;100.00
23241;BME280;11789;53.482;9.862;2023-08-31T01:12:04;100551.66;;;12.58;100.00
23241;BME280;11789;53.482;9.862;2023-08-31T01:14:38;100548.19;;;12.59;100.00
23241;BME280;11789;53.482;9.862;2023-08-31T01:17:08;100554.25;;;12.57;100.00
23241;BME280;11789;53.482;9.862;2023-08-31T01:19:48;100556.88;;;12.55;100.00
23241;BME280;11789;53.482;9.862;2023-08-31T01:22:30;100550.88;;;12.53;100.00
23241;BME280;11789;53.482;9.862;2023-08-31T01:24:58;100552.66;;;12.46;100.00
23241;BME280;11789;53.482;9.862;2023-08-31T01:27:28;100555.25;;;12.48;100.00
23241;BME280;11789;53.482;9.862;2023-08-31T01:29:55;100561.31;;;12.49;100.00
23241;BME280;11789;53.482;9.862;2023-08-31T01:32:20;100563.91;;;12.47;100.00
23241;BME280;11789;53.482;9.862;2023-08-31T01:34:46;100568.28;;;12.43;100.00
23241;BME280;11789;53.482;9.862;2023-08-31T01:37:17;100563.09;;;12.43;100.00
23241;BME280;11789;53.482;9.862;2023-08-31T01:39:46;100566.56;;;12.42;100.00
23241;BME280;11789;53.482;9.862;2023-08-31T01:42:15;100563.97;;;12.41;100.00
23241;BME280;11789;53.482;9.862;2023-08-31T01:44:42;100567.44;;;12.40;100.00
23241;BME280;11789;53.482;9.862;2023-08-31T01:47:10;100562.34;;;12.34;100.00
23241;BME280;11789;53.482;9.862;2023-08-31T01:49:39;100564.97;;;12.31;100.00
23241;BME280;11789;53.482;9.862;2023-08-31T01:52:06;100558.13;;;12.27;100.00
23241;BME280;11789;53.482;9.862;2023-08-31T01:54:32;100564.19;;;12.24;100.00
23241;BME280;11789;53.482;9.862;2023-08-31T01:56:58;100565.94;;;12.24;100.00
23241;BME280;11789;53.482;9.862;2023-08-31T01:59:23;100571.94;;;12.26;100.00
23241;BME280;11789;53.482;9.862;2023-08-31T02:01:49;100578.88;;;12.25;100.00
23241;BME280;11789;53.482;9.862;2023-08-31T02:04:14;100581.50;;;12.20;100.00
23241;BME280;11789;53.482;9.862;2023-08-31T02:06:40;100584.12;;;12.19;100.00
23241;BME280;11789;53.482;9.862;2023-08-31T02:09:05;100578.09;;;12.18;100.00
23241;BME280;11789;53.482;9.862;2023-08-31T02:11:31;100582.44;;;12.18;100.00
23241;BME280;11789;53.482;9.862;2023-08-31T02:13:58;100576.44;;;12.11;100.00
23241;BME280;11789;53.482;9.862;2023-08-31T02:16:23;100580.75;;;12.12;100.00
23241;BME280;11789;53.482;9.862;2023-08-31T02:18:49;100569.53;;;12.10;100.00
23241;BME280;11789;53.482;9.862;2023-08-31T02:21:14;100580.81;;;12.06;100.00
23241;BME280;11789;53.482;9.862;2023-08-31T02:23:39;100576.47;;;12.10;100.00
23241;BME280;11789;53.482;9.862;2023-08-31T02:26:05;100579.09;;;12.07;100.00
23241;BME280;11789;53.482;9.862;2023-08-31T02:28:30;100579.09;;;12.05;100.00
23241;BME280;11789;53.482;9.862;2023-08-31T02:31:02;100575.66;;;12.05;100.00
23241;BME280;11789;53.482;9.862;2023-08-31T02:33:28;100578.28;;;12.03;100.00
23241;BME280;11789;53.482;9.862;2023-08-31T02:35:55;100569.66;;;12.00;100.00
23241;BME280;11789;53.482;9.862;2023-08-31T02:38:21;100577.47;;;11.98;100.00
23241;BME280;11789;53.482;9.862;2023-08-31T02:40:46;100577.50;;;11.95;100.00
23241;BME280;11789;53.482;9.862;2023-08-31T02:43:13;100587.84;;;11.95;100.00
23241;BME280;11789;53.482;9.862;2023-08-31T02:45:38;100593.06;;;11.90;100.00
23241;BME280;11789;53.482;9.862;2023-08-31T02:48:06;100590.50;;;11.92;100.00
23241;BME280;11789;53.482;9.862;2023-08-31T02:50:33;100595.66;;;11.90;100.00
23241;BME280;11789;53.482;9.862;2023-08-31T02:52:59;100606.91;;;11.89;100.00
23241;BME280;11789;53.482;9.862;2023-08-31T02:55:24;100600.03;;;11.88;100.00
23241;BME280;11789;53.482;9.862;2023-08-31T02:57:50;100604.38;;;11.85;100.00
23241;BME280;11789;53.482;9.862;2023-08-31T03:00:15;100604.38;;;11.85;100.00
23241;BME280;11789;53.482;9.862;2023-08-31T03:02:42;100605.22;;;11.81;100.00
23241;BME280;11789;53.482;9.862;2023-08-31T03:05:08;100606.97;;;11.83;100.00
23241;BME280;11789;53.482;9.862;2023-08-31T03:07:34;100599.22;;;11.79;100.00
23241;BME280;11789;53.482;9.862;2023-08-31T03:09:59;100608.75;;;11.77;100.00
23241;BME280;11789;53.482;9.862;2023-08-31T03:12:25;100605.31;;;11.73;100.00
23241;BME280;11789;53.482;9.862;2023-08-31T03:14:50;100607.06;;;11.69;100.00
23241;BME280;11789;53.482;9.862;2023-08-31T03:17:16;100601.91;;;11.71;100.00
23241;BME280;11789;53.482;9.862;2023-08-31T03:19:41;100608.78;;;11.70;100.00
23241;BME280;11789;53.482;9.862;2023-08-31T03:22:06;100605.34;;;11.70;100.00
23241;BME280;11789;53.482;9.862;2023-08-31T03:24:33;100601.00;;;11.70;100.00
23241;BME280;11789;53.482;9.862;2023-08-31T03:26:58;100608.81;;;11.69;100.00
23241;BME280;11789;53.482;9.862;2023-08-31T03:29:23;100601.91;;;11.69;100.00
23241;BME280;11789;53.482;9.862;2023-08-31T03:31:49;100607.97;;;11.65;100.00
23241;BME280;11789;53.482;9.862;2023-08-31T03:34:14;100610.63;;;11.58;100.00
23241;BME280;11789;53.482;9.862;2023-08-31T03:36:40;100601.22;;;11.49;100.00
23241;BME280;11789;53.482;9.862;2023-08-31T03:39:06;100604.69;;;11.48;100.00
23241;BME280;11789;53.482;9.862;2023-08-31T03:41:31;100608.12;;;11.52;100.00
23241;BME280;11789;53.482;9.862;2023-08-31T03:43:57;100598.62;;;11.49;100.00
23241;BME280;11789;53.482;9.862;2023-08-31T03:46:22;100596.94;;;11.47;100.00
23241;BME280;11789;53.482;9.862;2023-08-31T03:48:48;100595.22;;;11.44;100.00
23241;BME280;11789;53.482;9.862;2023-08-31T03:51:13;100598.69;;;11.40;100.00
23241;BME280;11789;53.482;9.862;2023-08-31T03:53:39;100597.81;;;11.44;100.00
23241;BME280;11789;53.482;9.862;2023-08-31T03:56:04;100602.09;;;11.45;100.00
23241;BME280;11789;53.482;9.862;2023-08-31T03:58:30;100611.59;;;11.44;100.00
23241;BME280;11789;53.482;9.862;2023-08-31T04:00:56;100609.03;;;11.43;100.00
23241;BME280;11789;53.482;9.862;2023-08-31T04:03:21;100615.94;;;11.44;100.00
23241;BME280;11789;53.482;9.862;2023-08-31T04:05:47;100611.59;;;11.44;100.00
23241;BME280;11789;53.482;9.862;2023-08-31T04:08:13;100613.34;;;11.44;100.00
23241;BME280;11789;53.482;9.862;2023-08-31T04:10:38;100614.22;;;11.40;100.00
23241;BME280;11789;53.482;9.862;2023-08-31T04:13:04;100613.41;;;11.36;100.00
23241;BME280;11789;53.482;9.862;2023-08-31T04:15:29;100615.12;;;11.34;100.00
23241;BME280;11789;53.482;9.862;2023-08-31T04:17:56;100610.84;;;11.33;100.00
23241;BME280;11789;53.482;9.862;2023-08-31T04:20:21;100611.69;;;11.34;100.00
23241;BME280;11789;53.482;9.862;2023-08-31T04:22:47;100614.28;;;11.35;100.00
23241;BME280;11789;53.482;9.862;2023-08-31T04:25:13;100617.75;;;11.33;100.00
23241;BME280;11789;53.482;9.862;2023-08-31T04:27:38;100616.03;;;11.30;100.00
23241;BME280;11789;53.482;9.862;2023-08-31T04:30:07;100623.81;;;11.29;100.00
23241;BME280;11789;53.482;9.862;2023-08-31T04:32:33;100621.25;;;11.27;100.00
23241;BME280;11789;53.482;9.862;2023-08-31T04:34:58;100633.34;;;11.27;100.00
23241;BME280;11789;53.482;9.862;2023-08-31T04:37:24;100638.47;;;11.30;100.00
23241;BME280;11789;53.482;9.862;2023-08-31T04:39:49;100641.97;;;11.26;100.00
23241;BME280;11789;53.482;9.862;2023-08-31T04:42:15;100637.63;;;11.25;100.00
23241;BME280;11789;53.482;9.862;2023-08-31T04:44:42;100647.13;;;11.24;100.00
23241;BME280;11789;53.482;9.862;2023-08-31T04:47:08;100647.13;;;11.24;100.00
23241;BME280;11789;53.482;9.862;2023-08-31T04:49:33;100650.59;;;11.20;100.00
23241;BME280;11789;53.482;9.862;2023-08-31T04:51:58;100649.78;;;11.18;100.00
23241;BME280;11789;53.482;9.862;2023-08-31T04:54:24;100664.44;;;11.17;100.00
23241;BME280;11789;53.482;9.862;2023-08-31T04:56:50;100665.28;;;11.20;100.00
23241;BME280;11789;53.482;9.862;2023-08-31T04:59:16;100673.06;;;11.21;100.00
23241;BME280;11789;53.482;9.862;2023-08-31T05:01:41;100671.31;;;11.20;100.00
23241;BME280;11789;53.482;9.862;2023-08-31T05:04:07;100667.00;;;11.22;100.00
23241;BME280;11789;53.482;9.862;2023-08-31T05:06:32;100677.34;;;11.24;100.00
23241;BME280;11789;53.482;9.862;2023-08-31T05:08:58;100679.91;;;11.27;100.00
23241;BME280;11789;53.482;9.862;2023-08-31T05:11:23;100679.91;;;11.28;100.00
23241;BME280;11789;53.482;9.862;2023-08-31T05:13:49;100684.22;;;11.28;100.00
23241;BME280;11789;53.482;9.862;2023-08-31T05:16:14;100692.00;;;11.26;100.00
23241;BME280;11789;53.482;9.862;2023-08-31T05:18:40;100693.72;;;11.27;100.00
23241;BME280;11789;53.482;9.862;2023-08-31T05:21:06;100690.25;;;11.28;100.00
23241;BME280;11789;53.482;9.862;2023-08-31T05:23:31;100696.28;;;11.32;100.00
23241;BME280;11789;53.482;9.862;2023-08-31T05:25:58;100692.81;;;11.33;100.00
23241;BME280;11789;53.482;9.862;2023-08-31T05:28:23;100696.22;;;11.41;100.00
23241;BME280;11789;53.482;9.862;2023-08-31T05:30:50;100701.31;;;11.49;100.00
23241;BME280;11789;53.482;9.862;2023-08-31T05:33:17;100706.47;;;11.53;100.00
23241;BME280;11789;53.482;9.862;2023-08-31T05:35:43;100708.16;;;11.57;100.00
23241;BME280;11789;53.482;9.862;2023-08-31T05:38:08;100720.22;;;11.60;100.00
23241;BME280;11789;53.482;9.862;2023-08-31T05:40:34;100715.91;;;11.59;100.00
23241;BME280;11789;53.482;9.862;2023-08-31T05:42:59;100717.69;;;11.57;100.00
23241;BME280;11789;53.482;9.862;2023-08-31T05:45:24;100715.94;;;11.57;100.00
23241;BME280;11789;53.482;9.862;2023-08-31T05:47:50;100715.88;;;11.66;100.00
23241;BME280;11789;53.482;9.862;2023-08-31T05:50:15;100711.47;;;11.75;100.00
23241;BME280;11789;53.482;9.862;2023-08-31T05:52:41;100707.09;;;11.86;100.00
23241;BME280;11789;53.482;9.862;2023-08-31T05:55:10;100711.31;;;11.96;100.00
23241;BME280;11789;53.482;9.862;2023-08-31T05:57:35;100716.47;;;12.01;100.00
23241;BME280;11789;53.482;9.862;2023-08-31T06:00:03;100712.13;;;12.04;100.00
23241;BME280;11789;53.482;9.862;2023-08-31T06:02:29;100713.84;;;12.05;100.00
23241;BME280;11789;53.482;9.862;2023-08-31T06:04:54;100719.00;;;12.08;100.00
23241;BME280;11789;53.482;9.862;2023-08-31T06:07:20;100719.00;;;12.08;100.00
23241;BME280;11789;53.482;9.862;2023-08-31T06:09:45;100720.72;;;12.06;100.00
23241;BME280;11789;53.482;9.862;2023-08-31T06:12:10;100717.34;;;12.00;100.00
23241;BME280;11789;53.482;9.862;2023-08-31T06:14:36;100721.66;;;12.01;100.00
23241;BME280;11789;53.482;9.862;2023-08-31T06:17:01;100724.25;;;11.99;100.00
23241;BME280;11789;53.482;9.862;2023-08-31T06:19:26;100726.88;;;11.98;100.00
23241;BME280;11789;53.482;9.862;2023-08-31T06:21:52;100726.00;;;11.95;100.00
23241;BME280;11789;53.482;9.862;2023-08-31T06:24:17;100732.13;;;11.91;100.00
23241;BME280;11789;53.482;9.862;2023-08-31T06:26:43;100723.47;;;11.91;100.00
23241;BME280;11789;53.482;9.862;2023-08-31T06:29:08;100726.03;;;11.91;100.00
23241;BME280;11789;53.482;9.862;2023-08-31T06:31:36;100730.38;;;11.92;100.00
23241;BME280;11789;53.482;9.862;2023-08-31T06:34:01;100737.31;;;11.91;100.00
23241;BME280;11789;53.482;9.862;2023-08-31T06:36:27;100737.25;;;11.94;100.00
23241;BME280;11789;53.482;9.862;2023-08-31T06:38:53;100727.75;;;11.97;100.00
23241;BME280;11789;53.482;9.862;2023-08-31T06:41:18;100725.16;;;11.98;100.00
23241;BME280;11789;53.482;9.862;2023-08-31T06:43:43;100733.72;;;12.03;100.00
23241;BME280;11789;53.482;9.862;2023-08-31T06:46:11;100724.19;;;12.05;100.00
23241;BME280;11789;53.482;9.862;2023-08-31T06:48:36;100718.09;;;12.12;100.00
23241;BME280;11789;53.482;9.862;2023-08-31T06:51:02;100723.25;;;12.17;100.00
23241;BME280;11789;53.482;9.862;2023-08-31T06:53:29;100721.50;;;12.19;100.00
23241;BME280;11789;53.482;9.862;2023-08-31T06:55:56;100720.66;;;12.17;100.00
23241;BME280;11789;53.482;9.862;2023-08-31T06:58:22;100724.06;;;12.20;100.00
23241;BME280;11789;53.482;9.862;2023-08-31T07:00:47;100722.28;;;12.26;100.00
23241;BME280;11789;53.482;9.862;2023-08-31T07:03:13;100722.25;;;12.30;100.00
23241;BME280;11789;53.482;9.862;2023-08-31T07:05:41;100723.94;;;12.31;100.00
23241;BME280;11789;53.482;9.862;2023-08-31T07:08:08;100714.41;;;12.35;100.00
23241;BME280;11789;53.482;9.862;2023-08-31T07:10:34;100723.00;;;12.40;100.00
23241;BME280;11789;53.482;9.862;2023-08-31T07:13:02;100723.84;;;12.43;100.00
23241;BME280;11789;53.482;9.862;2023-08-31T07:15:29;100735.03;;;12.47;100.00
23241;BME280;11789;53.482;9.862;2023-08-31T07:17:54;100728.09;;;12.49;100.00
23241;BME280;11789;53.482;9.862;2023-08-31T07:20:20;100731.53;;;12.51;100.00
23241;BME280;11789;53.482;9.862;2023-08-31T07:22:45;100732.34;;;12.55;100.00
23241;BME280;11789;53.482;9.862;2023-08-31T07:25:11;100734.91;;;12.59;100.00
23241;BME280;11789;53.482;9.862;2023-08-31T07:27:37;100731.41;;;12.63;100.00
23241;BME280;11789;53.482;9.862;2023-08-31T07:30:04;100733.94;;;12.68;100.00
23241;BME280;11789;53.482;9.862;2023-08-31T07:32:30;100732.13;;;12.75;100.00
23241;BME280;11789;53.482;9.862;2023-08-31T07:34:56;100741.66;;;12.74;100.00
23241;BME280;11789;53.482;9.862;2023-08-31T07:37:22;100740.75;;;12.78;100.00
23241;BME280;11789;53.482;9.862;2023-08-31T07:39:47;100741.59;;;12.79;100.00
23241;BME280;11789;53.482;9.862;2023-08-31T07:42:12;100745.84;;;12.84;100.00
23241;BME280;11789;53.482;9.862;2023-08-31T07:44:38;100735.37;;;12.92;100.00
23241;BME280;11789;53.482;9.862;2023-08-31T07:47:04;100728.41;;;12.95;100.00
23241;BME280;11789;53.482;9.862;2023-08-31T07:49:29;100732.72;;;12.96;100.00
23241;BME280;11789;53.482;9.862;2023-08-31T07:51:54;100732.72;;;12.96;100.00
23241;BME280;11789;53.482;9.862;2023-08-31T07:54:21;100731.84;;;12.99;100.00
23241;BME280;11789;53.482;9.862;2023-08-31T07:56:46;100737.81;;;13.04;100.00
23241;BME280;11789;53.482;9.862;2023-08-31T07:59:12;100738.66;;;13.06;100.00
23241;BME280;11789;53.482;9.862;2023-08-31T08:01:37;100736.91;;;13.07;100.00
23241;BME280;11789;53.482;9.862;2023-08-31T08:04:03;100740.34;;;13.10;100.00
23241;BME280;11789;53.482;9.862;2023-08-31T08:06:28;100745.50;;;13.12;100.00
23241;BME280;11789;53.482;9.862;2023-08-31T08:08:54;100740.25;;;13.16;100.00
23241;BME280;11789;53.482;9.862;2023-08-31T08:11:21;100743.66;;;13.20;100.00
23241;BME280;11789;53.482;9.862;2023-08-31T08:13:47;100737.56;;;13.26;100.00
23241;BME280;11789;53.482;9.862;2023-08-31T08:16:12;100738.37;;;13.29;100.00
23241;BME280;11789;53.482;9.862;2023-08-31T08:18:38;100738.34;;;13.31;100.00
23241;BME280;11789;53.482;9.862;2023-08-31T08:21:03;100744.41;;;13.31;100.00
23241;BME280;11789;53.482;9.862;2023-08-31T08:23:28;100738.34;;;13.31;100.00
23241;BME280;11789;53.482;9.862;2023-08-31T08:25:54;100749.50;;;13.39;100.00
23241;BME280;11789;53.482;9.862;2023-08-31T08:28:19;100756.34;;;13.43;100.00
23241;BME280;11789;53.482;9.862;2023-08-31T08:30:45;100748.47;;;13.50;100.00
23241;BME280;11789;53.482;9.862;2023-08-31T08:33:10;100745.84;;;13.52;100.00
23241;BME280;11789;53.482;9.862;2023-08-31T08:35:37;100747.47;;;13.58;100.00
23241;BME280;11789;53.482;9.862;2023-08-31T08:38:03;100747.44;;;13.61;100.00
23241;BME280;11789;53.482;9.862;2023-08-31T08:40:30;100743.94;;;13.65;100.00
23241;BME280;11789;53.482;9.862;2023-08-31T08:42:58;100744.72;;;13.70;100.00
23241;BME280;11789;53.482;9.862;2023-08-31T08:45:33;100743.75;;;13.75;100.00
23241;BME280;11789;53.482;9.862;2023-08-31T08:48:03;100747.06;;;13.84;100.00
23241;BME280;11789;53.482;9.862;2023-08-31T08:50:31;100753.16;;;13.83;100.00
23241;BME280;11789;53.482;9.862;2023-08-31T08:53:01;100748.81;;;13.85;100.00
23241;BME280;11789;53.482;9.862;2023-08-31T08:55:27;100754.88;;;13.84;100.00
23241;BME280;11789;53.482;9.862;2023-08-31T08:57:53;100754.09;;;13.80;100.00
23241;BME280;11789;53.482;9.862;2023-08-31T09:00:18;100749.75;;;13.81;100.00
23241;BME280;11789;53.482;9.862;2023-08-31T09:02:44;100756.59;;;13.83;100.00
23241;BME280;11789;53.482;9.862;2023-08-31T09:05:11;100760.09;;;13.82;100.00
23241;BME280;11789;53.482;9.862;2023-08-31T09:07:37;100756.66;;;13.82;100.00
23241;BME280;11789;53.482;9.862;2023-08-31T09:10:03;100758.28;;;13.87;100.00
23241;BME280;11789;53.482;9.862;2023-08-31T09:12:29;100755.50;;;13.98;100.00
23241;BME280;11789;53.482;9.862;2023-08-31T09:17:24;100753.91;;;13.91;100.00
23241;BME280;11789;53.482;9.862;2023-08-31T09:19:59;100760.78;;;13.93;100.00
23241;BME280;11789;53.482;9.862;2023-08-31T09:22:25;100762.53;;;13.93;100.00
23241;BME280;11789;53.482;9.862;2023-08-31T09:24:51;100762.56;;;13.91;100.00
23241;BME280;11789;53.482;9.862;2023-08-31T09:27:20;100773.81;;;13.92;100.00
23241;BME280;11789;53.482;9.862;2023-08-31T09:29:46;100772.91;;;13.93;100.00
23241;BME280;11789;53.482;9.862;2023-08-31T09:32:16;100783.31;;;13.94;100.00
23241;BME280;11789;53.482;9.862;2023-08-31T09:34:42;100785.91;;;13.93;100.00
23241;BME280;11789;53.482;9.862;2023-08-31T09:37:08;100781.59;;;13.92;100.00
23241;BME280;11789;53.482;9.862;2023-08-31T09:39:39;100778.19;;;13.90;100.00
23241;BME280;11789;53.482;9.862;2023-08-31T09:42:04;100785.91;;;13.93;100.00
23241;BME280;11789;53.482;9.862;2023-08-31T09:44:30;100777.25;;;13.94;100.00
23241;BME280;11789;53.482;9.862;2023-08-31T09:46:56;100784.16;;;13.93;100.00
23241;BME280;11789;53.482;9.862;2023-08-31T09:49:24;100790.16;;;14.00;100.00
23241;BME280;11789;53.482;9.862;2023-08-31T09:51:51;100787.50;;;14.01;100.00
23241;BME280;11789;53.482;9.862;2023-08-31T09:54:18;100786.66;;;14.01;100.00
23241;BME280;11789;53.482;9.862;2023-08-31T09:56:46;100778.03;;;13.99;100.00
23241;BME280;11789;53.482;9.862;2023-08-31T09:59:13;100775.34;;;14.03;100.00
23241;BME280;11789;53.482;9.862;2023-08-31T10:01:44;100776.19;;;14.06;100.00
23241;BME280;11789;53.482;9.862;2023-08-31T10:04:10;100770.84;;;14.13;100.00
23241;BME280;11789;53.482;9.862;2023-08-31T10:06:41;100776.72;;;14.26;100.00
23241;BME280;11789;53.482;9.862;2023-08-31T10:09:07;100775.69;;;14.35;100.00
23241;BME280;11789;53.482;9.862;2023-08-31T10:11:37;100779.97;;;14.37;100.00
23241;BME280;11789;53.482;9.862;2023-08-31T10:14:04;100765.91;;;14.49;100.00
23241;BME280;11789;53.482;9.862;2023-08-31T10:16:30;100773.59;;;14.57;100.00
23241;BME280;11789;53.482;9.862;2023-08-31T10:18:56;100782.25;;;14.57;100.00
23241;BME280;11789;53.482;9.862;2023-08-31T10:21:22;100781.34;;;14.58;100.00
23241;BME280;11789;53.482;9.862;2023-08-31T10:23:49;100780.56;;;14.54;100.00
23241;BME280;11789;53.482;9.862;2023-08-31T10:26:31;100777.97;;;14.53;100.00
23241;BME280;11789;53.482;9.862;2023-08-31T10:28:58;100782.22;;;14.59;100.00
23241;BME280;11789;53.482;9.862;2023-08-31T10:31:28;100777.88;;;14.59;100.00
23241;BME280;11789;53.482;9.862;2023-08-31T10:36:55;100781.16;;;14.69;100.00
23241;BME280;11789;53.482;9.862;2023-08-31T10:39:19;100769.00;;;14.69;99.24
23241;BME280;11789;53.482;9.862;2023-08-31T10:41:53;100768.00;;;14.76;99.98
23241;BME280;11789;53.482;9.862;2023-08-31T10:44:23;100768.78;;;14.82;100.00
23241;BME280;11789;53.482;9.862;2023-08-31T10:46:50;100774.66;;;14.90;99.43
23241;BME280;11789;53.482;9.862;2023-08-31T10:49:17;100774.38;;;15.05;99.98
23241;BME280;11789;53.482;9.862;2023-08-31T10:51:46;100775.22;;;15.07;97.77
23241;BME280;11789;53.482;9.862;2023-08-31T10:54:31;100774.50;;;14.99;98.23
23241;BME280;11789;53.482;9.862;2023-08-31T11:02:09;100773.31;;;15.14;95.24
23241;BME280;11789;53.482;9.862;2023-08-31T11:07:31;100782.66;;;15.24;96.08
23241;BME280;11789;53.482;9.862;2023-08-31T11:10:17;100778.25;;;15.27;96.20
23241;BME280;11789;53.482;9.862;2023-08-31T11:12:47;100771.44;;;15.22;95.61
23241;BME280;11789;53.482;9.862;2023-08-31T11:15:24;100780.09;;;15.22;95.54
23241;BME280;11789;53.482;9.862;2023-08-31T11:17:52;100779.16;;;15.25;96.05
23241;BME280;11789;53.482;9.862;2023-08-31T11:20:22;100785.22;;;15.27;96.39
23241;BME280;11789;53.482;9.862;2023-08-31T11:22:50;100781.84;;;15.20;95.17
23241;BME280;11789;53.482;9.862;2023-08-31T11:25:16;100787.97;;;15.19;96.35
23241;BME280;11789;53.482;9.862;2023-08-31T11:27:53;100784.34;;;15.26;96.34
23241;BME280;11789;53.482;9.862;2023-08-31T11:30:18;100785.81;;;15.38;95.95
23241;BME280;11789;53.482;9.862;2023-08-31T11:32:47;100791.88;;;15.39;94.85
23241;BME280;11789;53.482;9.862;2023-08-31T11:35:14;100791.78;;;15.43;95.71
23241;BME280;11789;53.482;9.862;2023-08-31T11:37:41;100788.19;;;15.49;95.19
23241;BME280;11789;53.482;9.862;2023-08-31T11:40:08;100792.44;;;15.53;94.41
23241;BME280;11789;53.482;9.862;2023-08-31T11:42:34;100792.44;;;15.53;92.32
23241;BME280;11789;53.482;9.862;2023-08-31T11:45:00;100802.94;;;15.50;91.38
23241;BME280;11789;53.482;9.862;2023-08-31T11:47:25;100803.81;;;15.49;91.53
23241;BME280;11789;53.482;9.862;2023-08-31T11:49:51;100795.97;;;15.50;92.55
23241;BME280;11789;53.482;9.862;2023-08-31T11:52:17;100794.94;;;15.57;94.52
23241;BME280;11789;53.482;9.862;2023-08-31T11:54:43;100797.28;;;15.71;93.78
23241;BME280;11789;53.482;9.862;2023-08-31T11:57:11;100789.16;;;15.83;92.09
23241;BME280;11789;53.482;9.862;2023-08-31T11:59:38;100789.97;;;15.87;90.31
23241;BME280;11789;53.482;9.862;2023-08-31T12:02:08;100804.06;;;15.78;86.82
23241;BME280;11789;53.482;9.862;2023-08-31T12:04:42;100805.97;;;15.72;88.89
23241;BME280;11789;53.482;9.862;2023-08-31T12:07:15;100802.63;;;15.65;88.84
23241;BME280;11789;53.482;9.862;2023-08-31T12:09:41;100805.16;;;15.68;89.83
23241;BME280;11789;53.482;9.862;2023-08-31T12:12:09;100806.72;;;15.77;90.66
23241;BME280;11789;53.482;9.862;2023-08-31T12:14:37;100808.22;;;15.87;90.13
23241;BME280;11789;53.482;9.862;2023-08-31T12:17:06;100808.06;;;15.93;89.73
23241;BME280;11789;53.482;9.862;2023-08-31T12:19:33;100800.91;;;16.01;89.61
23241;BME280;11789;53.482;9.862;2023-08-31T12:21:59;100808.69;;;16.03;86.11
23241;BME280;11789;53.482;9.862;2023-08-31T12:24:25;100813.91;;;16.03;87.25
23241;BME280;11789;53.482;9.862;2023-08-31T12:26:51;100812.16;;;16.03;89.35
23241;BME280;11789;53.482;9.862;2023-08-31T12:29:19;100815.66;;;16.02;88.44
23241;BME280;11789;53.482;9.862;2023-08-31T12:31:45;100818.38;;;15.98;85.05
23241;BME280;11789;53.482;9.862;2023-08-31T12:34:10;100821.16;;;15.92;85.07
23241;BME280;11789;53.482;9.862;2023-08-31T12:36:36;100825.72;;;15.80;84.77
23241;BME280;11789;53.482;9.862;2023-08-31T12:39:04;100832.78;;;15.75;85.48
23241;BME280;11789;53.482;9.862;2023-08-31T12:41:32;100829.41;;;15.72;85.71
23241;BME280;11789;53.482;9.862;2023-08-31T12:43:58;100843.37;;;15.69;84.70
23241;BME280;11789;53.482;9.862;2023-08-31T12:46:24;100850.44;;;15.64;83.80
23241;BME280;11789;53.482;9.862;2023-08-31T12:48:50;100842.59;;;15.64;83.44
23241;BME280;11789;53.482;9.862;2023-08-31T12:51:16;100844.47;;;15.56;82.04
23241;BME280;11789;53.482;9.862;2023-08-31T12:53:42;100847.97;;;15.55;81.02
23241;BME280;11789;53.482;9.862;2023-08-31T12:56:07;100853.28;;;15.52;81.34
23241;BME280;11789;53.482;9.862;2023-08-31T12:58:33;100860.37;;;15.44;77.62